createdAt,value
2023-04-16T00:01:36.999Z,11.75
2023-04-16T00:04:03.721Z,11.68
2023-04-16T00:06:30.290Z,11.56
2023-04-16T00:08:56.628Z,11.72
2023-04-16T00:11:23.041Z,11.40
2023-04-16T00:13:49.418Z,11.52
2023-04-16T00:16:15.883Z,11.45
2023-04-16T00:18:42.356Z,11.63
2023-04-16T00:21:08.755Z,11.73
2023-04-16T00:23:35.186Z,11.57
2023-04-16T00:26:01.596Z,11.28
2023-04-16T00:28:27.968Z,10.97
2023-04-16T00:30:54.364Z,10.46
2023-04-16T00:33:20.864Z,10.71
2023-04-16T00:35:47.292Z,10.76
2023-04-16T00:38:13.690Z,10.70
2023-04-16T00:40:40.058Z,10.63
2023-04-16T00:43:06.462Z,10.54
2023-04-16T00:45:32.866Z,10.44
2023-04-16T00:48:00.529Z,10.31
2023-04-16T00:50:27.138Z,10.32
2023-04-16T00:52:53.712Z,10.49
2023-04-16T00:55:20.070Z,10.72
2023-04-16T00:57:46.465Z,10.62
2023-04-16T01:00:12.827Z,10.70
2023-04-16T01:02:39.334Z,10.51
2023-04-16T01:05:05.806Z,10.49
2023-04-16T01:07:32.168Z,10.47
2023-04-16T01:09:58.537Z,10.80
2023-04-16T01:12:25.005Z,10.82
2023-04-16T01:14:51.376Z,10.94
2023-04-16T01:17:17.773Z,10.97
2023-04-16T01:19:44.191Z,10.89
2023-04-16T01:22:10.556Z,10.89
2023-04-16T01:24:36.973Z,10.99
2023-04-16T01:27:03.370Z,10.70
2023-04-16T01:29:29.760Z,10.93
2023-04-16T01:31:56.138Z,11.01
2023-04-16T01:34:22.573Z,11.13
2023-04-16T01:36:48.970Z,11.19
2023-04-16T01:39:15.353Z,11.17
2023-04-16T01:41:41.883Z,11.20
2023-04-16T01:44:08.272Z,11.14
2023-04-16T01:46:34.673Z,11.18
2023-04-16T01:49:01.104Z,11.19
2023-04-16T01:51:27.445Z,11.07
2023-04-16T01:53:53.850Z,11.17
2023-04-16T01:56:20.242Z,11.21
2023-04-16T01:58:46.641Z,11.15
2023-04-16T02:01:13.048Z,11.19
2023-04-16T02:03:39.677Z,11.27
2023-04-16T02:06:06.211Z,11.34
2023-04-16T02:08:32.620Z,11.33
2023-04-16T02:10:59.024Z,11.43
2023-04-16T02:13:27.184Z,11.44
2023-04-16T02:15:53.589Z,11.49
2023-04-16T02:18:20.028Z,11.50
2023-04-16T02:20:46.416Z,11.35
2023-04-16T02:23:12.839Z,11.26
2023-04-16T02:25:39.205Z,11.42
2023-04-16T02:28:05.594Z,11.23
2023-04-16T02:30:31.967Z,10.99
2023-04-16T02:32:58.575Z,10.84
2023-04-16T02:35:24.947Z,10.74
2023-04-16T02:37:51.307Z,10.55
2023-04-16T02:40:17.671Z,10.41
2023-04-16T02:42:44.024Z,10.59
2023-04-16T02:45:10.363Z,10.78
2023-04-16T02:47:36.801Z,10.87
2023-04-16T02:50:03.177Z,10.97
2023-04-16T02:52:29.559Z,10.98
2023-04-16T02:54:55.956Z,11.04
2023-04-16T02:57:22.335Z,11.12
2023-04-16T02:59:48.777Z,11.11
2023-04-16T03:02:15.189Z,11.08
2023-04-16T03:04:41.744Z,10.99
2023-04-16T03:07:08.244Z,11.06
2023-04-16T03:09:34.683Z,11.10
2023-04-16T03:12:01.059Z,11.06
2023-04-16T03:14:27.446Z,11.07
2023-04-16T03:16:53.832Z,10.88
2023-04-16T03:19:20.209Z,10.73
2023-04-16T03:21:46.581Z,10.55
2023-04-16T03:24:12.981Z,10.45
2023-04-16T03:26:39.334Z,10.62
2023-04-16T03:29:05.700Z,10.33
2023-04-16T03:31:32.162Z,10.12
2023-04-16T03:33:58.540Z,10.51
2023-04-16T03:36:24.904Z,10.45
2023-04-16T03:38:51.323Z,10.22
2023-04-16T03:41:17.686Z,10.40
2023-04-16T03:43:44.056Z,10.63
2023-04-16T03:46:10.489Z,10.69
2023-04-16T03:48:36.940Z,10.81
2023-04-16T03:51:03.332Z,10.88
2023-04-16T03:53:29.721Z,10.68
2023-04-16T03:55:56.181Z,10.52
2023-04-16T03:58:22.564Z,10.54
2023-04-16T04:00:48.934Z,10.50
2023-04-16T04:03:15.445Z,10.46
2023-04-16T04:05:41.995Z,10.22
2023-04-16T04:08:08.372Z,10.12
2023-04-16T04:10:34.743Z,10.13
2023-04-16T04:13:01.176Z,10.11
2023-04-16T04:15:27.555Z,10.11
2023-04-16T04:17:54.001Z,10.24
2023-04-16T04:20:20.462Z,10.38
2023-04-16T04:22:46.877Z,10.22
2023-04-16T04:25:13.308Z,10.19
2023-04-16T04:27:39.660Z,10.05
2023-04-16T04:30:06.033Z,9.93
2023-04-16T04:32:32.469Z,9.76
2023-04-16T04:34:58.929Z,9.57
2023-04-16T04:37:25.298Z,9.49
2023-04-16T04:39:51.688Z,9.49
2023-04-16T04:42:18.087Z,9.88
2023-04-16T04:44:44.498Z,9.81
2023-04-16T04:47:10.890Z,9.61
2023-04-16T04:49:37.288Z,9.62
2023-04-16T04:52:03.728Z,9.91
2023-04-16T04:54:30.098Z,9.79
2023-04-16T04:56:56.489Z,9.63
2023-04-16T04:59:22.852Z,9.64
2023-04-16T05:01:49.276Z,10.24
2023-04-16T05:04:15.733Z,10.41
2023-04-16T05:06:42.277Z,10.58
2023-04-16T05:09:08.810Z,10.36
2023-04-16T05:11:35.447Z,9.91
2023-04-16T05:14:01.805Z,9.96
2023-04-16T05:16:28.232Z,10.16
2023-04-16T05:18:54.642Z,10.23
2023-04-16T05:21:21.006Z,10.17
2023-04-16T05:23:47.381Z,10.55
2023-04-16T05:26:13.891Z,10.64
2023-04-16T05:28:40.280Z,10.76
2023-04-16T05:31:06.649Z,10.67
2023-04-16T05:33:33.080Z,10.27
2023-04-16T05:35:59.470Z,10.57
2023-04-16T05:38:25.920Z,10.72
2023-04-16T05:40:52.487Z,10.89
2023-04-16T05:43:18.851Z,10.96
2023-04-16T05:45:45.240Z,10.98
2023-04-16T05:48:11.635Z,10.76
2023-04-16T05:50:38.070Z,10.90
2023-04-16T05:53:04.465Z,10.64
2023-04-16T05:55:30.854Z,10.44
2023-04-16T05:57:57.418Z,10.61
2023-04-16T06:00:23.814Z,10.65
2023-04-16T06:02:50.365Z,10.90
2023-04-16T06:05:16.975Z,11.01
2023-04-16T06:07:43.437Z,10.85
2023-04-16T06:10:09.865Z,10.82
2023-04-16T06:12:36.296Z,10.89
2023-04-16T06:15:02.874Z,10.81
2023-04-16T06:17:29.282Z,11.10
2023-04-16T06:19:55.691Z,11.17
2023-04-16T06:22:22.223Z,11.50
2023-04-16T06:24:48.618Z,11.47
2023-04-16T06:27:15.092Z,11.52
2023-04-16T06:29:42.014Z,11.41
2023-04-16T06:32:08.582Z,11.42
2023-04-16T06:34:35.015Z,11.65
2023-04-16T06:37:01.403Z,11.49
2023-04-16T06:39:27.787Z,11.57
2023-04-16T06:41:54.164Z,11.90
2023-04-16T06:44:20.539Z,11.63
2023-04-16T06:46:46.931Z,11.30
2023-04-16T06:49:13.391Z,11.48
2023-04-16T06:51:39.778Z,11.61
2023-04-16T06:54:06.199Z,11.48
2023-04-16T06:56:32.574Z,11.36
2023-04-16T06:58:58.944Z,11.48
2023-04-16T07:01:25.418Z,11.18
2023-04-16T07:03:52.076Z,11.06
2023-04-16T07:06:18.740Z,11.11
2023-04-16T07:08:45.108Z,11.54
2023-04-16T07:11:11.731Z,11.79
2023-04-16T07:13:38.175Z,11.71
2023-04-16T07:16:04.905Z,11.49
2023-04-16T07:18:31.321Z,11.46
2023-04-16T07:20:57.755Z,11.46
2023-04-16T07:23:24.133Z,11.41
2023-04-16T07:25:50.544Z,11.36
2023-04-16T07:28:17.008Z,11.22
2023-04-16T07:30:43.724Z,11.32
2023-04-16T07:33:10.153Z,11.30
2023-04-16T07:35:36.608Z,11.41
2023-04-16T07:38:03.040Z,11.26
2023-04-16T07:40:29.646Z,11.34
2023-04-16T07:42:56.063Z,11.22
2023-04-16T07:45:22.598Z,11.45
2023-04-16T07:47:49.105Z,11.64
2023-04-16T07:50:15.778Z,11.83
2023-04-16T07:52:42.233Z,11.43
2023-04-16T07:55:08.681Z,11.36
2023-04-16T07:57:35.244Z,11.67
2023-04-16T08:00:01.892Z,11.67
2023-04-16T08:02:28.710Z,12.03
2023-04-16T08:04:55.584Z,11.97
2023-04-16T08:07:22.060Z,12.16
2023-04-16T08:09:48.459Z,12.17
2023-04-16T08:12:14.827Z,12.74
2023-04-16T08:14:41.303Z,13.21
2023-04-16T08:17:07.734Z,13.20
2023-04-16T08:19:34.135Z,13.68
2023-04-16T08:22:00.598Z,13.89
2023-04-16T08:24:27.077Z,14.06
2023-04-16T08:26:53.503Z,14.23
2023-04-16T08:29:19.958Z,14.40
2023-04-16T08:31:46.420Z,14.42
2023-04-16T08:34:12.945Z,14.42
2023-04-16T08:36:39.359Z,14.44
2023-04-16T08:39:05.775Z,14.48
2023-04-16T08:41:32.176Z,14.53
2023-04-16T08:43:58.687Z,14.67
2023-04-16T08:46:25.077Z,14.74
2023-04-16T08:48:51.466Z,14.82
2023-04-16T08:51:17.912Z,14.78
2023-04-16T08:53:44.297Z,14.88
2023-04-16T08:56:10.721Z,14.85
2023-04-16T08:58:37.114Z,15.04
2023-04-16T09:01:03.526Z,15.03
2023-04-16T09:03:30.035Z,15.04
2023-04-16T09:05:56.525Z,15.15
2023-04-16T09:08:22.965Z,15.04
2023-04-16T09:10:49.357Z,15.18
2023-04-16T09:13:15.775Z,14.72
2023-04-16T09:15:42.155Z,14.93
2023-04-16T09:18:08.541Z,15.28
2023-04-16T09:20:34.958Z,15.50
2023-04-16T09:23:01.393Z,15.57
2023-04-16T09:25:27.802Z,15.57
2023-04-16T09:27:54.171Z,15.65
2023-04-16T09:30:20.575Z,15.60
2023-04-16T09:32:47.012Z,15.56
2023-04-16T09:35:13.410Z,15.70
2023-04-16T09:37:39.885Z,15.82
2023-04-16T09:40:06.293Z,15.85
2023-04-16T09:42:32.683Z,15.83
2023-04-16T09:45:00.816Z,15.92
2023-04-16T09:47:28.752Z,16.14
2023-04-16T09:49:55.157Z,16.08
2023-04-16T09:52:21.553Z,16.21
2023-04-16T09:54:48.023Z,16.22
2023-04-16T09:57:14.434Z,16.23
2023-04-16T09:59:40.811Z,16.38
2023-04-16T10:02:14.514Z,16.33
2023-04-16T10:04:42.777Z,16.39
2023-04-16T10:07:09.278Z,16.10
2023-04-16T10:09:35.660Z,15.95
2023-04-16T10:12:02.054Z,16.21
2023-04-16T10:14:28.430Z,16.57
2023-04-16T10:16:54.908Z,16.19
2023-04-16T10:19:22.492Z,16.58
2023-04-16T10:21:48.985Z,16.39
2023-04-16T10:24:15.366Z,16.91
2023-04-16T10:26:41.790Z,17.11
2023-04-16T10:29:08.243Z,17.16
2023-04-16T10:31:34.699Z,17.18
2023-04-16T10:34:01.194Z,16.83
2023-04-16T10:36:27.679Z,16.89
2023-04-16T10:38:54.077Z,17.04
2023-04-16T10:41:20.453Z,16.69
2023-04-16T10:43:46.986Z,16.39
2023-04-16T10:46:13.397Z,16.63
2023-04-16T10:48:49.649Z,16.89
2023-04-16T10:51:17.308Z,16.97
2023-04-16T10:53:43.727Z,16.93
2023-04-16T10:56:10.129Z,16.68
2023-04-16T10:58:36.537Z,16.88
2023-04-16T11:01:02.903Z,16.84
2023-04-16T11:03:29.496Z,16.86
2023-04-16T11:05:55.970Z,16.89
2023-04-16T11:08:23.389Z,17.03
2023-04-16T11:10:51.106Z,16.76
2023-04-16T11:13:17.696Z,16.72
2023-04-16T11:15:44.171Z,16.27
2023-04-16T11:18:10.676Z,16.30
2023-04-16T11:20:37.075Z,16.12
2023-04-16T11:23:03.485Z,16.24
2023-04-16T11:25:30.012Z,16.11
2023-04-16T11:27:56.443Z,16.16
2023-04-16T11:30:22.824Z,15.74
2023-04-16T11:32:49.268Z,15.51
2023-04-16T11:35:15.700Z,15.56
2023-04-16T11:37:42.135Z,15.61
2023-04-16T11:40:08.521Z,15.48
2023-04-16T11:42:34.999Z,15.38
2023-04-16T11:45:01.537Z,15.26
2023-04-16T11:47:28.052Z,15.33
2023-04-16T11:49:54.472Z,15.23
2023-04-16T11:52:20.907Z,15.25
2023-04-16T11:54:47.356Z,15.24
2023-04-16T11:57:13.923Z,15.48
2023-04-16T12:00:02.012Z,15.56
2023-04-16T12:02:26.809Z,15.08
2023-04-16T12:04:53.282Z,15.51
2023-04-16T12:07:19.759Z,15.77
2023-04-16T12:09:46.157Z,15.89
2023-04-16T12:12:12.584Z,16.05
2023-04-16T12:14:38.969Z,16.17
2023-04-16T12:17:05.425Z,15.88
2023-04-16T12:19:31.825Z,16.18
2023-04-16T12:21:58.197Z,16.20
2023-04-16T12:24:24.587Z,16.14
2023-04-16T12:26:51.029Z,16.50
2023-04-16T12:29:17.540Z,17.11
2023-04-16T12:31:43.949Z,16.89
2023-04-16T12:34:10.409Z,17.01
2023-04-16T12:36:36.827Z,17.46
2023-04-16T12:39:03.192Z,17.35
2023-04-16T12:41:29.568Z,17.51
2023-04-16T12:43:56.043Z,17.49
2023-04-16T12:46:22.642Z,17.49
2023-04-16T12:48:49.180Z,17.45
2023-04-16T12:51:15.550Z,17.50
2023-04-16T12:53:42.037Z,17.24
2023-04-16T12:56:08.581Z,17.47
2023-04-16T12:58:35.012Z,17.64
2023-04-16T13:01:01.374Z,17.91
2023-04-16T13:03:27.958Z,17.31
2023-04-16T13:05:54.413Z,17.58
2023-04-16T13:08:20.795Z,17.60
2023-04-16T13:10:47.240Z,17.58
2023-04-16T13:13:13.605Z,17.54
2023-04-16T13:15:40.066Z,17.40
2023-04-16T13:18:06.650Z,17.12
2023-04-16T13:20:33.067Z,17.05
2023-04-16T13:22:59.473Z,16.93
2023-04-16T13:25:26.110Z,16.93
2023-04-16T13:27:52.528Z,16.94
2023-04-16T13:30:18.931Z,16.96
2023-04-16T13:32:45.370Z,16.86
2023-04-16T13:35:11.847Z,17.13
2023-04-16T13:37:38.249Z,16.81
2023-04-16T13:40:04.760Z,17.25
2023-04-16T13:42:31.275Z,17.38
2023-04-16T13:44:57.660Z,17.51
2023-04-16T13:47:24.132Z,17.85
2023-04-16T13:49:50.696Z,17.95
2023-04-16T13:52:17.087Z,18.07
2023-04-16T13:54:43.484Z,17.97
2023-04-16T13:57:09.965Z,18.01
2023-04-16T13:59:36.388Z,17.92
2023-04-16T14:02:02.877Z,17.56
2023-04-16T14:04:29.567Z,17.29
2023-04-16T14:06:56.026Z,17.15
2023-04-16T14:09:23.836Z,17.04
2023-04-16T14:11:50.515Z,16.82
2023-04-16T14:14:16.888Z,16.35
2023-04-16T14:16:43.420Z,16.52
2023-04-16T14:19:10.222Z,16.28
2023-04-16T14:21:36.810Z,16.46
2023-04-16T14:24:03.424Z,16.89
2023-04-16T14:26:29.846Z,17.01
2023-04-16T14:28:56.367Z,17.29
2023-04-16T14:31:22.923Z,17.51
2023-04-16T14:33:49.351Z,17.98
2023-04-16T14:36:15.834Z,18.20
2023-04-16T14:38:42.283Z,18.65
2023-04-16T14:41:08.801Z,19.34
2023-04-16T14:43:35.201Z,19.79
2023-04-16T14:46:01.715Z,20.10
2023-04-16T14:48:28.170Z,20.14
2023-04-16T14:50:54.618Z,20.62
2023-04-16T14:53:21.097Z,20.13
2023-04-16T14:55:47.583Z,19.29
2023-04-16T14:58:14.149Z,19.59
2023-04-16T15:00:40.530Z,19.06
2023-04-16T15:03:07.211Z,19.18
2023-04-16T15:05:34.003Z,19.49
2023-04-16T15:08:00.393Z,20.28
2023-04-16T15:10:26.815Z,20.91
2023-04-16T15:12:53.203Z,21.30
2023-04-16T15:15:19.649Z,21.06
2023-04-16T15:17:46.105Z,21.09
2023-04-16T15:20:12.697Z,19.80
2023-04-16T15:22:39.632Z,19.40
2023-04-16T15:25:06.352Z,18.83
2023-04-16T15:27:32.834Z,18.29
2023-04-16T15:29:59.267Z,18.25
2023-04-16T15:32:25.735Z,18.42
2023-04-16T15:34:52.181Z,18.45
2023-04-16T15:37:18.713Z,18.22
2023-04-16T15:39:45.139Z,17.89
2023-04-16T15:42:11.580Z,17.97
2023-04-16T15:44:38.051Z,18.03
2023-04-16T15:47:04.595Z,17.67
2023-04-16T15:49:30.989Z,17.39
2023-04-16T15:51:57.583Z,16.94
2023-04-16T15:54:24.039Z,16.91
2023-04-16T15:56:50.450Z,16.99
2023-04-16T15:59:16.830Z,16.98
2023-04-16T16:01:43.233Z,17.33
2023-04-16T16:04:10.545Z,19.36
2023-04-16T16:06:37.098Z,18.60
2023-04-16T16:09:03.468Z,17.97
2023-04-16T16:11:30.010Z,17.63
2023-04-16T16:13:56.396Z,17.37
2023-04-16T16:16:22.866Z,17.16
2023-04-16T16:18:49.274Z,16.97
2023-04-16T16:21:15.944Z,16.71
2023-04-16T16:23:42.517Z,16.72
2023-04-16T16:26:09.070Z,16.66
2023-04-16T16:28:35.520Z,16.61
2023-04-16T16:31:02.075Z,16.40
2023-04-16T16:33:28.765Z,16.49
2023-04-16T16:35:55.247Z,16.57
2023-04-16T16:38:21.955Z,16.71
2023-04-16T16:40:48.429Z,16.69
2023-04-16T16:43:15.047Z,16.84
2023-04-16T16:45:41.504Z,16.48
2023-04-16T16:48:07.942Z,16.53
2023-04-16T16:50:34.401Z,16.35
2023-04-16T16:53:00.865Z,16.10
2023-04-16T16:55:27.277Z,15.60
2023-04-16T16:57:53.762Z,15.46
2023-04-16T17:00:20.148Z,15.43
2023-04-16T17:02:48.141Z,15.20
2023-04-16T17:05:14.649Z,14.96
2023-04-16T17:07:41.907Z,14.77
2023-04-16T17:10:08.294Z,14.42
2023-04-16T17:12:34.664Z,14.13
2023-04-16T17:15:01.032Z,14.08
2023-04-16T17:17:27.498Z,14.24
2023-04-16T17:19:54.018Z,14.31
2023-04-16T17:22:20.921Z,14.34
2023-04-16T17:24:47.425Z,14.49
2023-04-16T17:27:15.164Z,14.23
2023-04-16T17:29:42.076Z,14.08
2023-04-16T17:32:08.674Z,13.88
2023-04-16T17:34:35.252Z,14.01
2023-04-16T17:37:01.727Z,14.06
2023-04-16T17:39:30.778Z,13.96
2023-04-16T17:41:57.311Z,14.00
2023-04-16T17:44:23.735Z,14.10
2023-04-16T17:46:50.167Z,14.08
2023-04-16T17:49:16.619Z,14.17
2023-04-16T17:51:43.076Z,14.19
2023-04-16T17:54:09.729Z,14.10
2023-04-16T17:56:36.600Z,13.94
2023-04-16T17:59:03.100Z,13.89
2023-04-16T18:01:29.537Z,13.20
2023-04-16T18:03:56.213Z,13.52
2023-04-16T18:06:22.764Z,13.03
2023-04-16T18:08:49.170Z,12.69
2023-04-16T18:11:15.557Z,12.75
2023-04-16T18:13:41.985Z,12.81
2023-04-16T18:16:08.409Z,12.98
2023-04-16T18:18:37.393Z,12.39
2023-04-16T18:21:03.787Z,12.53
2023-04-16T18:23:30.197Z,12.38
2023-04-16T18:25:56.633Z,12.38
2023-04-16T18:28:23.013Z,12.60
2023-04-16T18:30:50.938Z,12.81
2023-04-16T18:35:46.926Z,13.09
2023-04-16T18:38:13.373Z,12.94
2023-04-16T18:40:39.940Z,12.83
2023-04-16T18:43:06.437Z,12.88
2023-04-16T18:45:34.233Z,12.92
2023-04-16T18:48:01.098Z,12.99
2023-04-16T18:50:27.502Z,12.92
2023-04-16T18:52:58.829Z,12.50
2023-04-16T18:55:34.740Z,12.37
2023-04-16T18:58:04.117Z,11.99
2023-04-16T19:00:30.780Z,12.10
2023-04-16T19:02:59.648Z,11.72
2023-04-16T19:05:36.709Z,11.63
2023-04-16T19:08:06.142Z,11.78
2023-04-16T19:10:35.205Z,11.59
2023-04-16T19:13:01.623Z,11.56
2023-04-16T19:15:32.127Z,11.48
2023-04-16T19:18:03.809Z,11.50
2023-04-16T19:20:34.301Z,11.34
2023-04-16T19:23:03.947Z,11.23
2023-04-16T19:25:33.137Z,11.06
2023-04-16T19:30:40.677Z,11.18
2023-04-16T19:33:07.134Z,11.31
2023-04-16T19:35:33.717Z,11.35
2023-04-16T19:38:00.128Z,11.28
2023-04-16T19:40:30.257Z,11.25
2023-04-16T19:42:59.954Z,11.34
2023-04-16T19:45:26.523Z,11.24
2023-04-16T19:47:53.038Z,11.18
2023-04-16T19:50:22.489Z,11.03
2023-04-16T19:52:49.146Z,11.08
2023-04-16T19:55:18.658Z,11.14
2023-04-16T19:57:45.085Z,11.12
2023-04-16T20:00:11.816Z,11.17
2023-04-16T20:02:43.760Z,11.32
2023-04-16T20:05:11.632Z,11.38
2023-04-16T20:07:38.150Z,11.48
2023-04-16T20:10:08.388Z,11.11
2023-04-16T20:12:35.050Z,11.02
2023-04-16T20:15:04.227Z,11.19
2023-04-16T20:17:31.338Z,11.35
2023-04-16T20:19:57.813Z,11.37
2023-04-16T20:22:24.508Z,11.46
2023-04-16T20:24:52.697Z,11.45
2023-04-16T20:27:21.987Z,11.37
2023-04-16T20:29:48.431Z,11.52
2023-04-16T20:32:14.933Z,11.42
2023-04-16T20:34:41.520Z,11.60
2023-04-16T20:37:08.218Z,11.66
2023-04-16T20:39:34.625Z,11.61
2023-04-16T20:42:01.196Z,11.73
2023-04-16T20:44:27.624Z,11.66
2023-04-16T20:46:54.102Z,11.52
2023-04-16T20:49:20.557Z,11.44
2023-04-16T20:51:47.118Z,11.55
2023-04-16T20:54:13.582Z,11.42
2023-04-16T20:56:39.948Z,11.53
2023-04-16T20:59:06.530Z,11.43
2023-04-16T21:01:33.091Z,11.50
2023-04-16T21:03:59.855Z,11.62
2023-04-16T21:06:26.503Z,11.67
2023-04-16T21:08:53.143Z,11.56
2023-04-16T21:11:19.552Z,11.62
2023-04-16T21:13:47.387Z,11.50
2023-04-16T21:16:15.463Z,11.49
2023-04-16T21:18:41.957Z,11.02
2023-04-16T21:21:08.556Z,11.29
2023-04-16T21:23:35.040Z,11.48
2023-04-16T21:26:01.486Z,11.61
2023-04-16T21:28:28.033Z,11.71
2023-04-16T21:30:54.388Z,11.76
2023-04-16T21:33:20.797Z,11.78
2023-04-16T21:35:47.569Z,11.77
2023-04-16T21:38:13.933Z,11.76
2023-04-16T21:40:40.322Z,11.86
2023-04-16T21:43:09.736Z,11.91
2023-04-16T21:45:36.255Z,11.89
2023-04-16T21:48:02.694Z,11.74
2023-04-16T21:50:29.355Z,11.81
2023-04-16T21:52:55.768Z,11.74
2023-04-16T21:55:22.144Z,11.66
2023-04-16T21:57:48.516Z,11.78
2023-04-16T22:00:14.922Z,11.72
2023-04-16T22:02:41.409Z,11.64
2023-04-16T22:05:07.952Z,11.68
2023-04-16T22:07:34.357Z,11.64
2023-04-16T22:10:00.791Z,11.62
2023-04-16T22:12:27.487Z,11.51
2023-04-16T22:15:02.501Z,11.48
2023-04-16T22:17:29.668Z,11.50
2023-04-16T22:19:56.058Z,11.56
2023-04-16T22:22:22.433Z,11.57
2023-04-16T22:24:48.812Z,11.44
2023-04-16T22:27:15.192Z,11.36
2023-04-16T22:29:41.666Z,11.28
2023-04-16T22:32:08.076Z,11.45
2023-04-16T22:34:34.507Z,11.41
2023-04-16T22:37:00.955Z,11.29
2023-04-16T22:39:27.360Z,11.20
2023-04-16T22:41:53.731Z,11.27
2023-04-16T22:44:20.073Z,11.28
2023-04-16T22:46:46.488Z,11.33
2023-04-16T22:49:13.113Z,11.01
2023-04-16T22:51:39.682Z,11.04
2023-04-16T22:54:06.243Z,11.02
2023-04-16T22:56:32.656Z,11.04
2023-04-16T22:58:59.068Z,10.80
2023-04-16T23:01:25.593Z,10.98
2023-04-16T23:03:52.196Z,11.04
2023-04-16T23:06:18.614Z,11.18
2023-04-16T23:08:45.075Z,11.26
2023-04-16T23:11:11.497Z,11.34
2023-04-16T23:13:37.851Z,11.42
2023-04-16T23:16:04.318Z,11.34
2023-04-16T23:18:30.739Z,11.45
2023-04-16T23:20:57.120Z,11.44
2023-04-16T23:23:23.527Z,11.34
2023-04-16T23:25:49.911Z,11.39
2023-04-16T23:28:16.288Z,11.30
2023-04-16T23:30:42.710Z,11.39
2023-04-16T23:33:09.340Z,11.39
2023-04-16T23:35:35.750Z,11.09
2023-04-16T23:38:02.139Z,11.27
2023-04-16T23:40:28.514Z,11.32
2023-04-16T23:42:54.873Z,11.43
2023-04-16T23:45:21.285Z,11.17
2023-04-16T23:47:47.720Z,11.28
2023-04-16T23:50:14.151Z,11.36
2023-04-16T23:52:40.554Z,11.45
2023-04-16T23:55:07.000Z,11.45
2023-04-16T23:57:33.405Z,11.45
2023-04-16T23:59:59.775Z,11.53
